createdAt,value
2022-11-19T00:01:08.078Z,100436.41
2022-11-19T00:03:35.666Z,100432.81
2022-11-19T00:06:05.211Z,100433.56
2022-11-19T00:08:31.849Z,100438.28
2022-11-19T00:11:12.496Z,100433.09
2022-11-19T00:13:41.456Z,100446.41
2022-11-19T00:16:11.631Z,100430.34
2022-11-19T00:18:38.455Z,100432.25
2022-11-19T00:21:10.685Z,100430.16
2022-11-19T00:23:37.396Z,100427.41
2022-11-19T00:26:06.335Z,100443.81
2022-11-19T00:28:33.249Z,100450.88
2022-11-19T00:31:10.861Z,100444.94
2022-11-19T00:33:38.546Z,100462.22
2022-11-19T00:36:07.519Z,100458.38
2022-11-19T00:38:34.724Z,100459.50
2022-11-19T00:41:01.312Z,100460.66
2022-11-19T00:43:46.821Z,100467.25
2022-11-19T00:46:22.224Z,100462.81
2022-11-19T00:48:50.222Z,100458.53
2022-11-19T00:51:18.636Z,100456.97
2022-11-19T00:53:45.326Z,100460.81
2022-11-19T00:56:14.129Z,100457.28
2022-11-19T00:58:41.646Z,100455.31
2022-11-19T01:01:10.062Z,100461.47
2022-11-19T01:03:37.523Z,100463.75
2022-11-19T01:06:05.231Z,100472.34
2022-11-19T01:08:31.905Z,100480.06
2022-11-19T01:11:12.895Z,100481.97
2022-11-19T01:13:39.480Z,100482.69
2022-11-19T01:16:14.780Z,100499.53
2022-11-19T01:18:42.023Z,100491.66
2022-11-19T01:21:11.087Z,100495.13
2022-11-19T01:23:42.094Z,100489.22
2022-11-19T01:26:09.866Z,100502.94
2022-11-19T01:28:36.670Z,100500.84
2022-11-19T01:31:21.208Z,100505.19
2022-11-19T01:33:48.753Z,100492.88
2022-11-19T01:36:27.965Z,100503.91
2022-11-19T01:38:55.154Z,100510.13
2022-11-19T01:41:32.392Z,100510.03
2022-11-19T01:44:01.001Z,100508.16
2022-11-19T01:46:33.084Z,100517.03
2022-11-19T01:49:16.937Z,100513.13
2022-11-19T01:51:58.342Z,100518.25
2022-11-19T01:54:34.259Z,100517.00
2022-11-19T01:57:06.281Z,100527.22
2022-11-19T01:59:32.907Z,100530.03
2022-11-19T02:01:59.863Z,100522.47
2022-11-19T02:04:27.511Z,100524.31
2022-11-19T02:06:55.077Z,100522.38
2022-11-19T02:09:22.192Z,100519.22
2022-11-19T02:12:23.404Z,100529.41
2022-11-19T02:15:35.393Z,100536.03
2022-11-19T02:18:29.969Z,100539.91
2022-11-19T02:21:17.265Z,100539.34
2022-11-19T02:23:57.483Z,100544.19
2022-11-19T02:26:56.078Z,100548.34
2022-11-19T02:29:33.242Z,100537.03
2022-11-19T02:32:14.708Z,100543.69
2022-11-19T02:34:51.283Z,100551.94
2022-11-19T02:37:30.390Z,100547.63
2022-11-19T02:40:05.028Z,100536.91
2022-11-19T02:42:37.080Z,100539.72
2022-11-19T02:45:10.168Z,100539.34
2022-11-19T02:47:59.770Z,100545.97
2022-11-19T02:50:36.467Z,100553.78
2022-11-19T02:53:04.477Z,100550.19
2022-11-19T02:55:31.967Z,100553.63
2022-11-19T02:58:09.292Z,100542.44
2022-11-19T03:01:07.798Z,100557.00
2022-11-19T03:03:53.947Z,100552.25
2022-11-19T03:06:28.781Z,100558.44
2022-11-19T03:08:55.290Z,100550.66
2022-11-19T03:11:26.090Z,100546.75
2022-11-19T03:14:16.949Z,100548.72
2022-11-19T03:16:58.439Z,100544.31
2022-11-19T03:19:44.834Z,100554.78
2022-11-19T03:22:32.757Z,100551.94
2022-11-19T03:25:05.607Z,100549.56
2022-11-19T03:27:45.356Z,100556.72
2022-11-19T03:30:13.840Z,100552.75
2022-11-19T03:32:48.219Z,100548.69
2022-11-19T03:35:19.744Z,100552.88
2022-11-19T03:37:50.920Z,100548.91
2022-11-19T03:40:19.162Z,100550.13
2022-11-19T03:42:50.984Z,100552.44
2022-11-19T03:45:22.252Z,100555.53
2022-11-19T03:47:50.459Z,100563.31
2022-11-19T03:50:33.494Z,100566.50
2022-11-19T03:53:04.037Z,100565.63
2022-11-19T03:55:39.991Z,100570.38
2022-11-19T03:58:09.492Z,100576.63
2022-11-19T04:00:36.388Z,100574.34
2022-11-19T04:03:04.463Z,100574.34
2022-11-19T04:05:31.034Z,100573.38
2022-11-19T04:07:57.519Z,100582.75
2022-11-19T04:10:24.387Z,100590.09
2022-11-19T04:12:50.941Z,100587.28
2022-11-19T04:15:17.379Z,100596.63
2022-11-19T04:17:43.899Z,100607.94
2022-11-19T04:20:10.693Z,100595.03
2022-11-19T04:22:37.241Z,100607.59
2022-11-19T04:25:03.993Z,100603.63
2022-11-19T04:27:30.426Z,100601.75
2022-11-19T04:29:56.858Z,100603.69
2022-11-19T04:32:23.374Z,100596.69
2022-11-19T04:34:49.817Z,100608.47
2022-11-19T04:37:16.310Z,100606.88
2022-11-19T04:39:42.781Z,100608.00
2022-11-19T04:42:09.242Z,100619.41
2022-11-19T04:44:35.733Z,100610.69
2022-11-19T04:47:02.261Z,100616.84
2022-11-19T04:49:28.721Z,100612.19
2022-11-19T04:51:55.227Z,100609.81
2022-11-19T04:54:21.745Z,100616.75
2022-11-19T04:56:48.230Z,100623.66
2022-11-19T04:59:15.295Z,100626.06
2022-11-19T05:01:41.838Z,100632.94
2022-11-19T05:04:09.733Z,100628.63
2022-11-19T05:06:36.205Z,100637.44
2022-11-19T05:09:02.741Z,100634.97
2022-11-19T05:11:29.202Z,100641.56
2022-11-19T05:13:55.694Z,100636.56
2022-11-19T05:16:22.203Z,100642.44
2022-11-19T05:18:48.695Z,100641.94
2022-11-19T05:21:15.151Z,100651.56
2022-11-19T05:23:41.568Z,100658.25
2022-11-19T05:26:08.036Z,100648.03
2022-11-19T05:28:38.869Z,100657.38
2022-11-19T05:31:06.279Z,100659.66
2022-11-19T05:33:34.240Z,100661.50
2022-11-19T05:36:01.587Z,100663.25
2022-11-19T05:38:28.037Z,100671.13
2022-11-19T05:40:54.499Z,100667.69
2022-11-19T05:43:20.932Z,100667.34
2022-11-19T05:45:47.390Z,100668.22
2022-11-19T05:48:13.838Z,100666.63
2022-11-19T05:50:43.301Z,100663.78
2022-11-19T05:53:10.345Z,100671.56
2022-11-19T05:55:36.765Z,100668.13
2022-11-19T05:58:03.231Z,100675.88
2022-11-19T06:00:29.696Z,100673.16
2022-11-19T06:02:56.369Z,100678.28
2022-11-19T06:05:22.845Z,100679.78
2022-11-19T06:07:49.447Z,100671.13
2022-11-19T06:10:15.981Z,100682.16
2022-11-19T06:12:45.797Z,100674.66
2022-11-19T06:15:13.267Z,100693.19
2022-11-19T06:17:39.807Z,100693.44
2022-11-19T06:20:08.811Z,100695.84
2022-11-19T06:22:35.596Z,100700.03
2022-11-19T06:25:02.485Z,100702.09
2022-11-19T06:27:28.936Z,100697.56
2022-11-19T06:29:56.426Z,100707.13
2022-11-19T06:32:23.518Z,100710.56
2022-11-19T06:34:50.011Z,100710.28
2022-11-19T06:37:16.574Z,100714.97
2022-11-19T06:39:43.047Z,100717.25
2022-11-19T06:42:28.203Z,100718.84
2022-11-19T06:44:54.659Z,100717.03
2022-11-19T06:47:21.138Z,100718.50
2022-11-19T06:49:47.576Z,100721.69
2022-11-19T06:52:14.044Z,100718.31
2022-11-19T06:54:43.338Z,100733.81
2022-11-19T06:57:10.249Z,100727.56
2022-11-19T06:59:38.927Z,100732.47
2022-11-19T07:02:06.150Z,100740.25
2022-11-19T07:04:32.777Z,100750.63
2022-11-19T07:06:59.314Z,100754.50
2022-11-19T07:09:25.835Z,100753.94
2022-11-19T07:11:52.587Z,100775.13
2022-11-19T07:14:19.051Z,100753.94
2022-11-19T07:16:45.506Z,100764.19
2022-11-19T07:19:12.229Z,100763.03
2022-11-19T07:21:39.072Z,100773.41
2022-11-19T07:24:09.451Z,100761.66
2022-11-19T07:26:36.867Z,100756.66
2022-11-19T07:29:07.805Z,100769.88
2022-11-19T07:31:34.730Z,100778.88
2022-11-19T07:34:01.265Z,100770.91
2022-11-19T07:36:27.844Z,100777.97
2022-11-19T07:38:54.313Z,100784.34
2022-11-19T07:41:39.250Z,100780.38
2022-11-19T07:44:05.985Z,100796.41
2022-11-19T07:46:32.509Z,100787.84
2022-11-19T07:48:59.398Z,100789.00
2022-11-19T07:51:26.497Z,100783.09
2022-11-19T07:53:54.737Z,100792.97
2022-11-19T07:56:21.227Z,100798.72
2022-11-19T07:58:47.678Z,100809.97
2022-11-19T08:01:22.582Z,100814.91
2022-11-19T08:03:56.081Z,100815.25
2022-11-19T08:06:25.710Z,100821.28
2022-11-19T08:08:52.534Z,100816.88
2022-11-19T08:11:19.389Z,100820.50
2022-11-19T08:13:45.978Z,100823.69
2022-11-19T08:16:34.741Z,100830.53
2022-11-19T08:19:02.700Z,100828.47
2022-11-19T08:21:29.117Z,100834.72
2022-11-19T08:23:55.946Z,100841.69
2022-11-19T08:26:22.796Z,100848.84
2022-11-19T08:28:49.269Z,100841.94
2022-11-19T08:31:15.758Z,100843.84
2022-11-19T08:33:42.224Z,100843.50
2022-11-19T08:36:08.733Z,100849.19
2022-11-19T08:38:38.649Z,100845.13
2022-11-19T08:41:24.352Z,100844.44
2022-11-19T08:43:50.818Z,100851.03
2022-11-19T08:46:17.302Z,100858.09
2022-11-19T08:48:43.855Z,100852.19
2022-11-19T08:51:10.558Z,100860.84
2022-11-19T08:53:37.144Z,100858.53
2022-11-19T08:56:03.693Z,100867.78
2022-11-19T08:58:30.168Z,100869.16
2022-11-19T09:00:56.676Z,100873.47
2022-11-19T09:03:23.289Z,100874.38
2022-11-19T09:05:49.846Z,100877.91
2022-11-19T09:08:16.313Z,100892.72
2022-11-19T09:10:42.804Z,100887.25
2022-11-19T09:13:09.300Z,100886.88
2022-11-19T09:15:35.831Z,100895.09
2022-11-19T09:18:02.698Z,100893.16
2022-11-19T09:20:29.669Z,100886.53
2022-11-19T09:22:56.157Z,100900.69
2022-11-19T09:25:22.728Z,100893.28
2022-11-19T09:27:49.203Z,100890.44
2022-11-19T09:30:15.809Z,100876.06
2022-11-19T09:32:42.282Z,100892.94
2022-11-19T09:35:08.855Z,100896.47
2022-11-19T09:37:36.135Z,100897.50
2022-11-19T09:40:02.677Z,100904.34
2022-11-19T09:42:47.107Z,100907.75
2022-11-19T09:45:33.196Z,100909.69
2022-11-19T09:48:06.294Z,100910.59
2022-11-19T09:50:52.950Z,100910.03
2022-11-19T09:53:22.599Z,100911.16
2022-11-19T09:55:52.564Z,100919.13
2022-11-19T09:58:27.168Z,100925.63
2022-11-19T10:00:53.743Z,100922.09
2022-11-19T10:03:23.143Z,100922.09
2022-11-19T10:06:19.399Z,100921.97
2022-11-19T10:08:57.772Z,100919.47
2022-11-19T10:11:43.026Z,100920.50
2022-11-19T10:14:31.138Z,100924.50
2022-11-19T10:17:13.695Z,100927.19
2022-11-19T10:19:54.115Z,100925.47
2022-11-19T10:22:57.556Z,100924.25
2022-11-19T10:25:29.338Z,100933.97
2022-11-19T10:28:08.204Z,100932.94
2022-11-19T10:30:35.224Z,100928.56
2022-11-19T10:33:06.272Z,100925.91
2022-11-19T10:35:39.974Z,100930.13
2022-11-19T10:38:16.525Z,100915.03
2022-11-19T10:40:48.618Z,100931.47
2022-11-19T10:43:48.168Z,100929.16
2022-11-19T10:46:22.353Z,100925.31
2022-11-19T10:48:59.019Z,100927.50
2022-11-19T10:51:29.641Z,100920.09
2022-11-19T10:53:57.255Z,100920.28
2022-11-19T10:56:38.995Z,100914.75
2022-11-19T10:59:12.576Z,100914.22
2022-11-19T11:01:42.212Z,100912.97
2022-11-19T11:04:17.155Z,100912.47
2022-11-19T11:07:00.285Z,100908.34
2022-11-19T11:09:37.023Z,100910.16
2022-11-19T11:12:43.688Z,100916.63
2022-11-19T11:15:15.583Z,100916.06
2022-11-19T11:17:43.044Z,100913.06
2022-11-19T11:20:18.304Z,100912.97
2022-11-19T11:22:48.386Z,100916.28
2022-11-19T11:25:32.964Z,100915.84
2022-11-19T11:28:12.654Z,100917.47
2022-11-19T11:31:00.014Z,100921.22
2022-11-19T11:33:26.419Z,100916.09
2022-11-19T11:35:56.130Z,100900.47
2022-11-19T11:38:25.234Z,100899.81
2022-11-19T11:44:02.597Z,100906.94
2022-11-19T11:46:51.773Z,100912.72
2022-11-19T11:49:24.407Z,100905.06
2022-11-19T11:52:09.633Z,100906.91
2022-11-19T11:54:37.891Z,100903.50
2022-11-19T11:57:24.250Z,100899.94
2022-11-19T11:59:50.739Z,100907.84
2022-11-19T12:02:33.031Z,100909.09
2022-11-19T12:05:16.762Z,100900.78
2022-11-19T12:08:00.227Z,100901.00
2022-11-19T12:10:52.154Z,100897.13
2022-11-19T12:13:50.248Z,100895.56
2022-11-19T12:16:35.621Z,100909.25
2022-11-19T12:19:29.507Z,100905.28
2022-11-19T12:22:05.111Z,100894.34
2022-11-19T12:24:53.533Z,100908.47
2022-11-19T12:27:36.914Z,100913.06
2022-11-19T12:30:18.218Z,100904.78
2022-11-19T12:33:10.750Z,100899.31
2022-11-19T12:36:08.236Z,100907.06
2022-11-19T12:38:52.547Z,100899.69
2022-11-19T12:41:36.900Z,100896.66
2022-11-19T12:44:30.856Z,100899.78
2022-11-19T12:47:04.913Z,100904.09
2022-11-19T12:50:11.365Z,100894.97
2022-11-19T12:52:58.477Z,100902.88
2022-11-19T12:55:27.706Z,100899.03
2022-11-19T12:58:14.745Z,100895.94
2022-11-19T13:00:50.718Z,100900.28
2022-11-19T13:03:25.962Z,100889.84
2022-11-19T13:06:05.068Z,100894.38
2022-11-19T13:08:40.297Z,100879.66
2022-11-19T13:11:15.753Z,100900.44
2022-11-19T13:14:06.065Z,100893.28
2022-11-19T13:16:35.087Z,100898.81
2022-11-19T13:19:17.969Z,100889.38
2022-11-19T13:21:55.203Z,100893.81
2022-11-19T13:24:33.958Z,100900.81
2022-11-19T13:27:04.439Z,100903.31
2022-11-19T13:29:36.827Z,100904.19
2022-11-19T13:32:13.685Z,100906.09
2022-11-19T13:34:47.852Z,100902.56
2022-11-19T13:37:39.150Z,100908.25
2022-11-19T13:40:23.251Z,100905.78
2022-11-19T13:46:05.794Z,100909.66
2022-11-19T13:48:39.595Z,100913.00
2022-11-19T13:51:11.687Z,100909.06
2022-11-19T13:53:43.934Z,100906.91
2022-11-19T13:56:15.238Z,100903.91
2022-11-19T13:58:48.742Z,100909.94
2022-11-19T14:01:24.615Z,100907.03
2022-11-19T14:04:04.056Z,100899.81
2022-11-19T14:06:50.056Z,100902.09
2022-11-19T14:09:31.893Z,100901.97
2022-11-19T14:12:08.106Z,100900.63
2022-11-19T14:15:02.328Z,100898.09
2022-11-19T14:17:50.292Z,100907.41
2022-11-19T14:21:00.070Z,100906.63
2022-11-19T14:24:06.374Z,100909.59
2022-11-19T14:26:41.643Z,100909.91
2022-11-19T14:29:20.480Z,100917.25
2022-11-19T14:32:06.222Z,100915.38
2022-11-19T14:34:35.331Z,100912.69
2022-11-19T14:37:11.904Z,100915.81
2022-11-19T14:39:44.762Z,100909.25
2022-11-19T14:42:16.797Z,100905.25
2022-11-19T14:45:02.776Z,100910.91
2022-11-19T14:47:38.851Z,100911.03
2022-11-19T14:50:10.604Z,100907.00
2022-11-19T14:52:50.890Z,100919.81
2022-11-19T14:55:21.510Z,100922.78
2022-11-19T14:57:57.045Z,100923.13
2022-11-19T15:00:28.709Z,100936.34
2022-11-19T15:02:55.886Z,100929.19
2022-11-19T15:05:29.901Z,100931.41
2022-11-19T15:08:17.879Z,100927.47
2022-11-19T15:10:47.410Z,100924.13
2022-11-19T15:13:18.623Z,100929.94
2022-11-19T15:15:47.956Z,100926.59
2022-11-19T15:18:20.428Z,100937.00
2022-11-19T15:21:08.598Z,100944.19
2022-11-19T15:23:53.848Z,100944.91
2022-11-19T15:26:50.137Z,100946.91
2022-11-19T15:29:54.183Z,100946.75
2022-11-19T15:32:39.311Z,100935.09
2022-11-19T15:35:12.918Z,100945.97
2022-11-19T15:37:58.966Z,100943.34
2022-11-19T15:40:30.991Z,100943.16
2022-11-19T15:43:30.441Z,100946.81
2022-11-19T15:46:04.533Z,100951.66
2022-11-19T15:48:44.658Z,100946.16
2022-11-19T15:51:14.700Z,100939.28
2022-11-19T15:53:58.387Z,100928.81
2022-11-19T15:56:27.833Z,100937.22
2022-11-19T15:58:54.484Z,100930.97
2022-11-19T16:01:22.112Z,100936.38
2022-11-19T16:03:51.630Z,100937.75
2022-11-19T16:06:23.560Z,100939.16
2022-11-19T16:08:55.625Z,100947.16
2022-11-19T16:11:43.724Z,100950.41
2022-11-19T16:14:43.716Z,100944.97
2022-11-19T16:17:32.335Z,100953.69
2022-11-19T16:20:01.817Z,100950.28
2022-11-19T16:22:28.882Z,100944.72
2022-11-19T16:25:04.842Z,100951.91
2022-11-19T16:27:31.728Z,100944.38
2022-11-19T16:29:58.644Z,100951.22
2022-11-19T16:32:27.249Z,100951.69
2022-11-19T16:35:09.043Z,100955.00
2022-11-19T16:37:35.962Z,100956.38
2022-11-19T16:40:03.120Z,100953.53
2022-11-19T16:42:30.903Z,100959.00
2022-11-19T16:45:09.728Z,100952.03
2022-11-19T16:47:49.933Z,100953.31
2022-11-19T16:50:28.834Z,100958.91
2022-11-19T16:52:56.088Z,100955.34
2022-11-19T16:55:25.259Z,100961.06
2022-11-19T16:58:00.054Z,100954.91
2022-11-19T17:00:37.237Z,100958.06
2022-11-19T17:03:31.675Z,100956.94
2022-11-19T17:05:59.010Z,100954.44
2022-11-19T17:08:55.260Z,100962.50
2022-11-19T17:11:42.851Z,100972.19
2022-11-19T17:14:23.325Z,100970.34
2022-11-19T17:16:52.404Z,100968.72
2022-11-19T17:19:32.714Z,100973.94
2022-11-19T17:22:18.314Z,100964.84
2022-11-19T17:24:45.879Z,100965.31
2022-11-19T17:27:31.497Z,100971.44
2022-11-19T17:30:01.423Z,100969.16
2022-11-19T17:32:38.709Z,100966.75
2022-11-19T17:35:09.279Z,100967.47
2022-11-19T17:37:35.724Z,100968.91
2022-11-19T17:40:02.366Z,100964.69
2022-11-19T17:42:47.629Z,100974.69
2022-11-19T17:45:14.110Z,100972.16
2022-11-19T17:47:40.600Z,100982.16
2022-11-19T17:50:07.606Z,100981.78
2022-11-19T17:52:34.069Z,100982.13
2022-11-19T17:55:26.715Z,100983.22
2022-11-19T17:57:53.213Z,100981.78
2022-11-19T18:00:19.742Z,100982.44
2022-11-19T18:02:48.682Z,100979.72
2022-11-19T18:05:25.790Z,100981.03
2022-11-19T18:07:53.335Z,100977.72
2022-11-19T18:10:20.283Z,100969.94
2022-11-19T18:12:46.720Z,100984.84
2022-11-19T18:15:18.136Z,100991.88
2022-11-19T18:17:45.198Z,100982.31
2022-11-19T18:20:12.308Z,100986.66
2022-11-19T18:22:39.672Z,100978.31
2022-11-19T18:25:20.071Z,100980.00
2022-11-19T18:27:46.583Z,100975.66
2022-11-19T18:30:14.433Z,100983.38
2022-11-19T18:32:41.299Z,100974.28
2022-11-19T18:35:17.991Z,100975.38
2022-11-19T18:37:44.909Z,100973.31
2022-11-19T18:40:15.579Z,100979.78
2022-11-19T18:43:01.562Z,100981.03
2022-11-19T18:45:28.069Z,100977.84
2022-11-19T18:47:54.894Z,100994.22
2022-11-19T18:50:25.456Z,100979.38
2022-11-19T18:52:55.984Z,100974.25
2022-11-19T18:55:22.505Z,100978.56
2022-11-19T18:57:48.956Z,100983.34
2022-11-19T19:00:15.543Z,100980.50
2022-11-19T19:02:42.102Z,100970.59
2022-11-19T19:05:08.799Z,100970.59
2022-11-19T19:07:35.923Z,100979.69
2022-11-19T19:10:03.269Z,100969.00
2022-11-19T19:12:29.755Z,100973.63
2022-11-19T19:14:57.009Z,100969.16
2022-11-19T19:17:23.523Z,100983.13
2022-11-19T19:19:50.015Z,100980.41
2022-11-19T19:22:16.579Z,100977.56
2022-11-19T19:24:43.124Z,100987.31
2022-11-19T19:27:10.005Z,100979.13
2022-11-19T19:29:36.869Z,100986.50
2022-11-19T19:32:03.690Z,100983.78
2022-11-19T19:34:30.622Z,100979.47
2022-11-19T19:36:57.090Z,100977.41
2022-11-19T19:39:24.055Z,100975.00
2022-11-19T19:41:50.888Z,100966.69
2022-11-19T19:44:17.417Z,100969.09
2022-11-19T19:46:46.763Z,100967.47
2022-11-19T19:49:13.227Z,100970.84
2022-11-19T19:51:39.739Z,100968.78
2022-11-19T19:54:06.337Z,100974.09
2022-11-19T19:56:33.523Z,100975.41
2022-11-19T19:59:01.089Z,100966.63
2022-11-19T20:01:30.514Z,100966.34
2022-11-19T20:04:06.030Z,100972.59
2022-11-19T20:06:33.263Z,100976.44
2022-11-19T20:09:03.202Z,100967.47
2022-11-19T20:11:33.653Z,100969.06
2022-11-19T20:14:00.155Z,100958.69
2022-11-19T20:16:29.198Z,100957.41
2022-11-19T20:18:57.779Z,100966.38
2022-11-19T20:21:26.955Z,100965.91
2022-11-19T20:23:54.134Z,100970.69
2022-11-19T20:26:27.898Z,100966.69
2022-11-19T20:28:56.343Z,100973.91
2022-11-19T20:31:23.032Z,100966.69
2022-11-19T20:34:01.599Z,100966.69
2022-11-19T20:36:30.224Z,100967.97
2022-11-19T20:38:59.600Z,100961.25
2022-11-19T20:41:46.282Z,100968.78
2022-11-19T20:44:19.992Z,100970.88
2022-11-19T20:46:52.926Z,100974.53
2022-11-19T20:49:21.771Z,100972.03
2022-11-19T20:51:48.807Z,100974.75
2022-11-19T20:54:15.690Z,100982.91
2022-11-19T20:56:42.567Z,100976.97
2022-11-19T20:59:09.764Z,100981.16
2022-11-19T21:01:39.022Z,100986.94
2022-11-19T21:04:05.649Z,100981.19
2022-11-19T21:06:32.200Z,100989.38
2022-11-19T21:08:58.828Z,100984.38
2022-11-19T21:11:25.458Z,100986.78
2022-11-19T21:13:52.346Z,100982.16
2022-11-19T21:16:23.979Z,100980.72
2022-11-19T21:18:51.280Z,100979.44
2022-11-19T21:21:20.596Z,100975.78
2022-11-19T21:23:47.154Z,100966.63
2022-11-19T21:26:17.039Z,100964.25
2022-11-19T21:28:46.721Z,100959.78
2022-11-19T21:31:14.949Z,100963.28
2022-11-19T21:33:41.525Z,100968.72
2022-11-19T21:36:08.889Z,100963.00
2022-11-19T21:38:35.878Z,100959.47
2022-11-19T21:41:02.460Z,100953.88
2022-11-19T21:43:29.424Z,100953.75
2022-11-19T21:45:57.295Z,100952.78
2022-11-19T21:48:27.363Z,100950.38
2022-11-19T21:50:54.270Z,100963.53
2022-11-19T21:53:21.341Z,100958.56
2022-11-19T21:55:47.862Z,100963.22
2022-11-19T21:58:15.407Z,100949.75
2022-11-19T22:00:43.803Z,100946.06
2022-11-19T22:03:10.527Z,100952.97
2022-11-19T22:05:37.077Z,100956.81
2022-11-19T22:08:03.670Z,100950.75
2022-11-19T22:10:30.690Z,100956.50
2022-11-19T22:12:59.975Z,100959.53
2022-11-19T22:15:27.099Z,100958.72
2022-11-19T22:17:53.896Z,100954.44
2022-11-19T22:20:20.567Z,100960.19
2022-11-19T22:22:47.074Z,100959.88
2022-11-19T22:25:14.657Z,100963.06
2022-11-19T22:27:41.830Z,100954.13
2022-11-19T22:30:10.125Z,100960.34
2022-11-19T22:32:36.952Z,100943.69
2022-11-19T22:35:04.130Z,100949.78
2022-11-19T22:37:30.673Z,100943.06
2022-11-19T22:39:57.221Z,100956.97
2022-11-19T22:42:23.711Z,100957.78
2022-11-19T22:44:51.110Z,100956.53
2022-11-19T22:47:17.544Z,100955.22
2022-11-19T22:49:44.244Z,100966.91
2022-11-19T22:52:10.775Z,100962.28
2022-11-19T22:54:41.344Z,100968.03
2022-11-19T22:57:08.500Z,100954.25
2022-11-19T22:59:35.029Z,100951.72
2022-11-19T23:02:01.636Z,100940.22
2022-11-19T23:04:28.992Z,100957.78
2022-11-19T23:06:55.468Z,100941.78
2022-11-19T23:09:22.255Z,100951.09
2022-11-19T23:12:07.356Z,100952.34
2022-11-19T23:14:34.990Z,100949.78
2022-11-19T23:17:01.461Z,100950.09
2022-11-19T23:19:27.886Z,100944.03
2022-11-19T23:21:54.357Z,100955.72
2022-11-19T23:24:20.786Z,100949.47
2022-11-19T23:26:47.265Z,100947.88
2022-11-19T23:29:13.706Z,100942.25
2022-11-19T23:31:40.534Z,100939.38
2022-11-19T23:34:07.467Z,100933.75
2022-11-19T23:36:36.701Z,100931.81
2022-11-19T23:39:05.329Z,100931.97
2022-11-19T23:41:33.885Z,100931.66
2022-11-19T23:44:01.121Z,100926.25
2022-11-19T23:46:33.628Z,100926.41
2022-11-19T23:49:01.180Z,100932.50
2022-11-19T23:51:30.302Z,100932.81
2022-11-19T23:53:57.526Z,100931.53
2022-11-19T23:56:25.381Z,100933.75
2022-11-19T23:58:52.527Z,100929.63
